createdAt,value
2023-05-06T00:00:13.586Z,35.39
2023-05-06T00:01:13.700Z,35.44
2023-05-06T00:02:13.689Z,35.40
2023-05-06T00:03:14.144Z,35.41
2023-05-06T00:04:13.788Z,35.41
2023-05-06T00:05:13.813Z,35.40
2023-05-06T00:06:13.852Z,35.41
2023-05-06T00:07:13.873Z,35.41
2023-05-06T00:08:13.995Z,35.40
2023-05-06T00:09:13.891Z,35.41
2023-05-06T00:10:13.926Z,35.44
2023-05-06T00:11:13.939Z,35.40
2023-05-06T00:12:13.999Z,35.39
2023-05-06T00:13:14.010Z,35.41
2023-05-06T00:14:13.918Z,35.41
2023-05-06T00:15:13.961Z,35.39
2023-05-06T00:16:13.992Z,35.39
2023-05-06T00:17:14.057Z,35.39
2023-05-06T00:18:14.049Z,35.42
2023-05-06T00:19:14.089Z,35.40
2023-05-06T00:20:14.132Z,35.32
2023-05-06T00:21:14.129Z,35.40
2023-05-06T00:22:14.132Z,35.40
2023-05-06T00:23:14.528Z,35.40
2023-05-06T00:24:14.222Z,35.36
2023-05-06T00:25:14.278Z,35.33
2023-05-06T00:26:14.299Z,35.36
2023-05-06T00:27:14.305Z,35.35
2023-05-06T00:28:14.300Z,35.35
2023-05-06T00:29:14.278Z,35.36
2023-05-06T00:30:14.290Z,35.33
2023-05-06T00:31:14.304Z,35.35
2023-05-06T00:32:14.336Z,35.34
2023-05-06T00:33:14.392Z,35.31
2023-05-06T00:34:14.316Z,35.33
2023-05-06T00:35:14.331Z,35.32
2023-05-06T00:36:14.333Z,35.35
2023-05-06T00:37:14.362Z,35.32
2023-05-06T00:38:14.422Z,35.34
2023-05-06T00:39:14.483Z,35.32
2023-05-06T00:40:14.545Z,35.33
2023-05-06T00:41:14.551Z,35.31
2023-05-06T00:42:14.587Z,35.33
2023-05-06T00:43:14.643Z,35.32
2023-05-06T00:44:14.641Z,35.32
2023-05-06T00:45:14.658Z,35.31
2023-05-06T00:46:14.650Z,35.33
2023-05-06T00:47:14.672Z,35.33
2023-05-06T00:48:14.737Z,35.28
2023-05-06T00:49:14.802Z,35.27
2023-05-06T00:50:14.657Z,35.33
2023-05-06T00:51:14.669Z,35.32
2023-05-06T00:52:14.670Z,35.34
2023-05-06T00:53:14.683Z,35.30
2023-05-06T00:54:14.690Z,35.28
2023-05-06T00:55:14.701Z,35.31
2023-05-06T00:56:14.670Z,35.30
2023-05-06T00:57:14.657Z,35.25
2023-05-06T00:58:14.666Z,35.29
2023-05-06T00:59:14.630Z,35.25
2023-05-06T01:00:14.646Z,35.29
2023-05-06T01:01:14.627Z,35.30
2023-05-06T01:02:14.630Z,35.31
2023-05-06T01:03:14.696Z,35.29
2023-05-06T01:04:14.659Z,35.29
2023-05-06T01:05:14.707Z,35.28
2023-05-06T01:06:14.613Z,35.25
2023-05-06T01:07:14.620Z,35.30
2023-05-06T01:08:14.586Z,35.28
2023-05-06T01:09:14.627Z,35.28
2023-05-06T01:10:14.606Z,35.32
2023-05-06T01:11:15.921Z,35.26
2023-05-06T01:12:14.591Z,35.24
2023-05-06T01:13:15.166Z,35.26
2023-05-06T01:14:14.628Z,35.26
2023-05-06T01:15:14.603Z,35.26
2023-05-06T01:16:14.607Z,35.26
2023-05-06T01:17:14.683Z,35.25
2023-05-06T01:18:14.602Z,35.26
2023-05-06T01:19:14.615Z,35.30
2023-05-06T01:20:14.623Z,35.28
2023-05-06T01:21:14.658Z,35.25
2023-05-06T01:22:14.623Z,35.26
2023-05-06T01:23:14.630Z,35.26
2023-05-06T01:24:14.608Z,35.25
2023-05-06T01:25:14.599Z,35.26
2023-05-06T01:26:14.602Z,35.26
2023-05-06T01:27:14.615Z,35.25
2023-05-06T01:28:15.048Z,35.26
2023-05-06T01:29:14.588Z,35.21
2023-05-06T01:30:14.611Z,35.22
2023-05-06T01:31:14.626Z,35.22
2023-05-06T01:32:14.613Z,35.22
2023-05-06T01:33:14.605Z,35.25
2023-05-06T01:34:14.593Z,35.22
2023-05-06T01:35:14.622Z,35.21
2023-05-06T01:36:14.650Z,35.23
2023-05-06T01:37:14.743Z,35.22
2023-05-06T01:38:15.067Z,35.20
2023-05-06T01:39:14.620Z,35.21
2023-05-06T01:40:14.669Z,35.19
2023-05-06T01:41:14.650Z,35.17
2023-05-06T01:42:14.651Z,35.21
2023-05-06T01:43:14.627Z,35.18
2023-05-06T01:44:14.631Z,35.22
2023-05-06T01:45:14.628Z,35.21
2023-05-06T01:46:14.652Z,35.18
2023-05-06T01:47:14.622Z,35.21
2023-05-06T01:48:14.611Z,35.17
2023-05-06T01:49:14.636Z,35.22
2023-05-06T01:50:14.599Z,35.14
2023-05-06T01:51:14.610Z,35.19
2023-05-06T01:52:14.574Z,35.19
2023-05-06T01:53:14.590Z,35.18
2023-05-06T01:54:14.629Z,35.19
2023-05-06T01:55:14.599Z,35.16
2023-05-06T01:56:14.572Z,35.19
2023-05-06T01:57:14.616Z,35.14
2023-05-06T01:58:15.078Z,35.16
2023-05-06T01:59:14.564Z,35.14
2023-05-06T02:00:14.601Z,35.16
2023-05-06T02:01:14.639Z,35.17
2023-05-06T02:02:14.569Z,35.16
2023-05-06T02:03:14.729Z,35.14
2023-05-06T02:04:14.588Z,35.14
2023-05-06T02:05:14.571Z,35.17
2023-05-06T02:06:14.579Z,35.18
2023-05-06T02:07:14.580Z,35.19
2023-05-06T02:08:14.585Z,35.13
2023-05-06T02:09:14.681Z,35.17
2023-05-06T02:10:14.587Z,35.14
2023-05-06T02:11:14.537Z,35.11
2023-05-06T02:12:14.550Z,35.14
2023-05-06T02:13:14.626Z,35.16
2023-05-06T02:14:14.567Z,35.12
2023-05-06T02:15:14.581Z,35.16
2023-05-06T02:16:14.607Z,35.14
2023-05-06T02:17:14.575Z,35.17
2023-05-06T02:18:14.566Z,35.15
2023-05-06T02:19:14.554Z,35.13
2023-05-06T02:20:14.568Z,35.14
2023-05-06T02:21:14.535Z,35.13
2023-05-06T02:22:14.549Z,35.10
2023-05-06T02:23:14.579Z,35.14
2023-05-06T02:24:14.537Z,35.10
2023-05-06T02:25:14.581Z,35.12
2023-05-06T02:26:14.542Z,35.16
2023-05-06T02:27:14.515Z,35.13
2023-05-06T02:28:14.518Z,35.12
2023-05-06T02:29:14.511Z,35.10
2023-05-06T02:30:14.520Z,35.12
2023-05-06T02:31:14.521Z,35.10
2023-05-06T02:32:14.492Z,35.14
2023-05-06T02:33:14.503Z,35.10
2023-05-06T02:34:14.483Z,35.13
2023-05-06T02:35:14.494Z,35.10
2023-05-06T02:36:14.479Z,35.13
2023-05-06T02:37:14.486Z,35.06
2023-05-06T02:38:14.472Z,35.11
2023-05-06T02:39:14.459Z,35.09
2023-05-06T02:40:14.471Z,35.15
2023-05-06T02:41:14.537Z,35.15
2023-05-06T02:42:14.455Z,35.14
2023-05-06T02:43:14.458Z,35.10
2023-05-06T02:44:14.459Z,35.05
2023-05-06T02:45:14.484Z,35.11
2023-05-06T02:46:14.493Z,35.08
2023-05-06T02:47:14.439Z,35.09
2023-05-06T02:48:14.565Z,35.05
2023-05-06T02:49:14.406Z,35.09
2023-05-06T02:50:14.418Z,35.07
2023-05-06T02:51:14.388Z,35.08
2023-05-06T02:52:14.403Z,35.07
2023-05-06T02:53:14.418Z,35.09
2023-05-06T02:54:14.396Z,35.10
2023-05-06T02:55:14.437Z,35.06
2023-05-06T02:56:14.413Z,35.05
2023-05-06T02:57:14.454Z,35.07
2023-05-06T02:58:14.599Z,35.10
2023-05-06T02:59:14.392Z,35.06
2023-05-06T03:00:14.414Z,35.09
2023-05-06T03:01:14.374Z,35.06
2023-05-06T03:02:14.387Z,35.10
2023-05-06T03:03:14.398Z,35.05
2023-05-06T03:04:14.431Z,35.07
2023-05-06T03:05:14.355Z,35.02
2023-05-06T03:06:14.405Z,35.06
2023-05-06T03:07:14.327Z,35.06
2023-05-06T03:08:14.360Z,35.03
2023-05-06T03:09:14.343Z,35.05
2023-05-06T03:10:14.348Z,35.06
2023-05-06T03:11:14.387Z,35.05
2023-05-06T03:12:14.359Z,35.00
2023-05-06T03:13:14.751Z,35.00
2023-05-06T03:14:14.355Z,35.05
2023-05-06T03:15:14.337Z,35.00
2023-05-06T03:16:14.390Z,35.03
2023-05-06T03:17:14.329Z,35.03
2023-05-06T03:18:14.324Z,35.03
2023-05-06T03:19:14.397Z,35.02
2023-05-06T03:20:14.361Z,35.03
2023-05-06T03:21:14.445Z,35.03
2023-05-06T03:22:14.325Z,35.01
2023-05-06T03:23:14.327Z,35.01
2023-05-06T03:24:14.345Z,34.99
2023-05-06T03:25:14.390Z,34.99
2023-05-06T03:26:14.324Z,35.02
2023-05-06T03:27:14.340Z,35.02
2023-05-06T03:28:14.349Z,35.01
2023-05-06T03:29:14.361Z,35.03
2023-05-06T03:30:14.352Z,35.03
2023-05-06T03:31:14.401Z,34.98
2023-05-06T03:32:14.382Z,35.00
2023-05-06T03:33:14.348Z,34.98
2023-05-06T03:34:14.382Z,35.01
2023-05-06T03:35:14.397Z,35.00
2023-05-06T03:36:14.394Z,34.97
2023-05-06T03:37:14.390Z,34.98
2023-05-06T03:38:14.370Z,35.03
2023-05-06T03:39:14.351Z,35.00
2023-05-06T03:40:14.364Z,35.02
2023-05-06T03:41:14.361Z,34.98
2023-05-06T03:42:14.342Z,34.97
2023-05-06T03:43:14.339Z,34.95
2023-05-06T03:44:14.335Z,34.96
2023-05-06T03:45:14.357Z,35.00
2023-05-06T03:46:14.396Z,34.96
2023-05-06T03:47:14.340Z,35.01
2023-05-06T03:48:14.677Z,34.99
2023-05-06T03:49:14.341Z,34.94
2023-05-06T03:50:14.364Z,34.99
2023-05-06T03:51:14.329Z,34.95
2023-05-06T03:52:14.404Z,34.96
2023-05-06T03:53:14.363Z,34.98
2023-05-06T03:54:14.364Z,34.97
2023-05-06T03:55:14.388Z,34.97
2023-05-06T03:56:14.355Z,34.93
2023-05-06T03:57:14.354Z,34.94
2023-05-06T03:58:14.396Z,34.95
2023-05-06T03:59:14.391Z,34.93
2023-05-06T04:00:14.384Z,34.95
2023-05-06T04:01:14.403Z,34.96
2023-05-06T04:02:14.493Z,34.93
2023-05-06T04:03:14.442Z,34.93
2023-05-06T04:04:14.470Z,34.94
2023-05-06T04:05:14.403Z,34.93
2023-05-06T04:06:14.408Z,34.97
2023-05-06T04:07:14.416Z,34.95
2023-05-06T04:08:14.608Z,34.95
2023-05-06T04:09:14.406Z,34.93
2023-05-06T04:10:14.420Z,34.95
2023-05-06T04:11:14.428Z,34.95
2023-05-06T04:12:14.440Z,34.96
2023-05-06T04:13:14.586Z,34.93
2023-05-06T04:14:14.447Z,34.93
2023-05-06T04:15:14.443Z,34.92
2023-05-06T04:16:14.452Z,34.95
2023-05-06T04:17:14.527Z,34.98
2023-05-06T04:18:14.486Z,34.94
2023-05-06T04:19:14.493Z,34.94
2023-05-06T04:20:14.514Z,34.94
2023-05-06T04:21:14.519Z,34.95
2023-05-06T04:22:14.501Z,34.95
2023-05-06T04:23:14.505Z,34.90
2023-05-06T04:24:14.501Z,34.93
2023-05-06T04:25:14.524Z,34.94
2023-05-06T04:26:14.522Z,34.91
2023-05-06T04:27:14.544Z,34.93
2023-05-06T04:28:14.561Z,34.93
2023-05-06T04:29:14.537Z,34.94
2023-05-06T04:30:14.533Z,34.89
2023-05-06T04:31:14.666Z,34.89
2023-05-06T04:32:14.544Z,34.92
2023-05-06T04:33:14.613Z,34.94
2023-05-06T04:34:14.509Z,34.93
2023-05-06T04:35:14.533Z,34.91
2023-05-06T04:36:14.527Z,34.93
2023-05-06T04:37:14.588Z,34.91
2023-05-06T04:38:14.563Z,34.87
2023-05-06T04:39:14.562Z,34.91
2023-05-06T04:40:14.567Z,34.89
2023-05-06T04:41:14.543Z,34.93
2023-05-06T04:42:14.565Z,34.91
2023-05-06T04:43:14.553Z,34.91
2023-05-06T04:44:14.562Z,34.89
2023-05-06T04:45:14.561Z,34.90
2023-05-06T04:46:14.631Z,34.91
2023-05-06T04:47:14.547Z,34.92
2023-05-06T04:48:14.557Z,34.89
2023-05-06T04:49:14.600Z,34.92
2023-05-06T04:50:14.513Z,34.91
2023-05-06T04:51:14.539Z,34.91
2023-05-06T04:52:14.552Z,34.86
2023-05-06T04:53:14.596Z,34.93
2023-05-06T04:54:14.585Z,34.90
2023-05-06T04:55:14.576Z,34.90
2023-05-06T04:56:14.556Z,34.89
2023-05-06T04:57:14.582Z,34.92
2023-05-06T04:58:14.608Z,34.94
2023-05-06T04:59:14.585Z,34.87
2023-05-06T05:00:14.656Z,34.82
2023-05-06T05:01:14.676Z,34.86
2023-05-06T05:02:14.680Z,34.90
2023-05-06T05:03:14.743Z,34.86
2023-05-06T05:04:14.619Z,34.87
2023-05-06T05:05:14.684Z,34.86
2023-05-06T05:06:14.653Z,34.89
2023-05-06T05:07:14.634Z,34.93
2023-05-06T05:08:14.667Z,34.91
2023-05-06T05:09:14.656Z,34.86
2023-05-06T05:10:14.665Z,34.89
2023-05-06T05:11:14.701Z,34.86
2023-05-06T05:12:14.675Z,34.87
2023-05-06T05:13:14.783Z,34.87
2023-05-06T05:14:14.722Z,34.84
2023-05-06T05:15:14.733Z,34.86
2023-05-06T05:16:14.693Z,34.84
2023-05-06T05:17:14.780Z,34.87
2023-05-06T05:18:14.773Z,34.85
2023-05-06T05:19:14.730Z,34.85
2023-05-06T05:20:14.706Z,34.86
2023-05-06T05:21:14.816Z,34.85
2023-05-06T05:22:14.737Z,34.81
2023-05-06T05:23:14.725Z,34.86
2023-05-06T05:24:14.741Z,34.81
2023-05-06T05:25:14.916Z,34.85
2023-05-06T05:26:14.771Z,34.85
2023-05-06T05:27:14.775Z,34.86
2023-05-06T05:28:15.146Z,34.82
2023-05-06T05:29:14.761Z,34.87
2023-05-06T05:30:14.817Z,34.85
2023-05-06T05:31:14.835Z,34.84
2023-05-06T05:32:14.812Z,34.85
2023-05-06T05:33:14.948Z,34.80
2023-05-06T05:34:14.824Z,34.85
2023-05-06T05:35:14.818Z,34.84
2023-05-06T05:36:14.835Z,34.82
2023-05-06T05:37:14.895Z,34.79
2023-05-06T05:38:14.851Z,34.86
2023-05-06T05:39:14.832Z,34.81
2023-05-06T05:40:14.853Z,34.79
2023-05-06T05:41:16.794Z,34.86
2023-05-06T05:42:14.985Z,34.82
2023-05-06T05:43:15.021Z,34.84
2023-05-06T05:44:15.029Z,34.84
2023-05-06T05:45:15.036Z,34.81
2023-05-06T05:46:15.068Z,34.82
2023-05-06T05:47:15.035Z,34.81
2023-05-06T05:48:15.054Z,34.81
2023-05-06T05:49:15.049Z,34.81
2023-05-06T05:50:15.013Z,34.81
2023-05-06T05:51:15.047Z,34.82
2023-05-06T05:52:15.048Z,34.82
2023-05-06T05:53:15.117Z,34.81
2023-05-06T05:54:15.063Z,34.81
2023-05-06T05:55:15.062Z,34.83
2023-05-06T05:56:15.078Z,34.73
2023-05-06T05:57:15.077Z,34.79
2023-05-06T05:58:15.069Z,34.79
2023-05-06T05:59:15.092Z,34.81
2023-05-06T06:00:15.140Z,34.79
2023-05-06T06:01:15.095Z,34.76
2023-05-06T06:02:15.097Z,34.79
2023-05-06T06:03:15.185Z,34.77
2023-05-06T06:04:15.237Z,34.77
2023-05-06T06:05:15.154Z,34.81
2023-05-06T06:06:15.172Z,34.79
2023-05-06T06:07:15.155Z,34.79
2023-05-06T06:08:15.228Z,34.73
2023-05-06T06:09:15.255Z,34.76
2023-05-06T06:10:15.217Z,34.74
2023-05-06T06:11:15.199Z,34.77
2023-05-06T06:12:15.207Z,34.76
2023-05-06T06:13:15.253Z,34.74
2023-05-06T06:14:15.231Z,34.74
2023-05-06T06:15:15.214Z,34.72
2023-05-06T06:16:15.312Z,34.71
2023-05-06T06:17:15.252Z,34.72
2023-05-06T06:18:15.290Z,34.76
2023-05-06T06:19:15.309Z,34.74
2023-05-06T06:20:15.318Z,34.75
2023-05-06T06:21:15.309Z,34.75
2023-05-06T06:22:15.326Z,34.68
2023-05-06T06:23:15.328Z,34.72
2023-05-06T06:24:15.333Z,34.71
2023-05-06T06:25:15.353Z,34.72
2023-05-06T06:26:15.357Z,34.72
2023-05-06T06:27:15.431Z,34.74
2023-05-06T06:28:15.372Z,34.73
2023-05-06T06:29:15.361Z,34.71
2023-05-06T06:30:15.395Z,34.76
2023-05-06T06:31:15.439Z,34.73
2023-05-06T06:32:15.386Z,34.76
2023-05-06T06:33:15.397Z,34.73
2023-05-06T06:34:15.410Z,34.74
2023-05-06T06:35:15.422Z,34.72
2023-05-06T06:36:15.421Z,34.72
2023-05-06T06:37:15.430Z,34.72
2023-05-06T06:38:15.407Z,34.72
2023-05-06T06:39:15.415Z,34.70
2023-05-06T06:40:15.466Z,34.73
2023-05-06T06:41:15.565Z,34.73
2023-05-06T06:42:15.421Z,34.72
2023-05-06T06:43:15.450Z,34.69
2023-05-06T06:44:15.457Z,34.72
2023-05-06T06:45:15.452Z,34.71
2023-05-06T06:46:15.472Z,34.74
2023-05-06T06:47:15.416Z,34.71
2023-05-06T06:48:15.437Z,34.71
2023-05-06T06:49:15.438Z,34.68
2023-05-06T06:50:15.457Z,34.71
2023-05-06T06:51:15.454Z,34.72
2023-05-06T06:52:15.473Z,34.74
2023-05-06T06:53:15.484Z,34.70
2023-05-06T06:54:15.473Z,34.70
2023-05-06T06:55:15.487Z,34.71
2023-05-06T06:56:15.459Z,34.72
2023-05-06T06:57:15.475Z,34.71
2023-05-06T06:58:15.498Z,34.70
2023-05-06T06:59:15.499Z,34.65
2023-05-06T07:00:15.483Z,34.70
2023-05-06T07:01:15.561Z,34.67
2023-05-06T07:02:15.489Z,34.71
2023-05-06T07:03:15.463Z,34.65
2023-05-06T07:04:15.484Z,34.71
2023-05-06T07:05:15.454Z,34.70
2023-05-06T07:06:15.471Z,34.68
2023-05-06T07:07:15.425Z,34.65
2023-05-06T07:08:15.408Z,34.66
2023-05-06T07:09:15.416Z,34.67
2023-05-06T07:10:15.412Z,34.63
2023-05-06T07:11:15.429Z,34.65
2023-05-06T07:12:15.426Z,34.63
2023-05-06T07:13:15.490Z,34.63
2023-05-06T07:14:15.428Z,34.63
2023-05-06T07:15:15.431Z,34.65
2023-05-06T07:16:15.431Z,34.65
2023-05-06T07:17:15.479Z,34.66
2023-05-06T07:18:15.434Z,34.61
2023-05-06T07:19:15.417Z,34.61
2023-05-06T07:20:15.415Z,34.61
2023-05-06T07:21:15.441Z,34.63
2023-05-06T07:22:15.434Z,34.65
2023-05-06T07:23:15.465Z,34.60
2023-05-06T07:24:15.450Z,34.60
2023-05-06T07:25:15.462Z,34.63
2023-05-06T07:26:15.456Z,34.64
2023-05-06T07:27:15.428Z,34.63
2023-05-06T07:28:15.423Z,34.63
2023-05-06T07:29:15.534Z,34.62
2023-05-06T07:30:15.452Z,34.56
2023-05-06T07:31:15.476Z,34.60
2023-05-06T07:32:15.454Z,34.61
2023-05-06T07:33:15.482Z,34.60
2023-05-06T07:34:15.440Z,34.56
2023-05-06T07:35:15.460Z,34.61
2023-05-06T07:36:15.431Z,34.61
2023-05-06T07:37:15.462Z,34.52
2023-05-06T07:38:15.457Z,34.57
2023-05-06T07:39:15.450Z,34.57
2023-05-06T07:40:15.433Z,34.58
2023-05-06T07:41:15.476Z,34.58
2023-05-06T07:42:15.463Z,34.51
2023-05-06T07:43:15.450Z,34.52
2023-05-06T07:44:16.161Z,34.47
2023-05-06T07:45:15.623Z,34.52
2023-05-06T07:46:15.501Z,34.55
2023-05-06T07:47:15.464Z,34.49
2023-05-06T07:48:16.507Z,34.51
2023-05-06T07:49:15.449Z,34.47
2023-05-06T07:50:15.462Z,34.46
2023-05-06T07:51:15.448Z,34.46
2023-05-06T07:52:15.438Z,34.51
2023-05-06T07:53:15.466Z,34.47
2023-05-06T07:54:15.465Z,34.48
2023-05-06T07:55:15.433Z,34.48
2023-05-06T07:56:15.451Z,34.51
2023-05-06T07:57:15.437Z,34.47
2023-05-06T07:58:15.438Z,34.50
2023-05-06T07:59:15.441Z,34.49
2023-05-06T08:00:15.396Z,34.49
2023-05-06T08:01:15.473Z,34.48
2023-05-06T08:02:15.461Z,34.45
2023-05-06T08:03:15.553Z,34.49
2023-05-06T08:04:15.503Z,34.49
2023-05-06T08:05:15.419Z,34.45
2023-05-06T08:06:15.399Z,34.52
2023-05-06T08:07:15.383Z,34.48
2023-05-06T08:08:15.394Z,34.50
2023-05-06T08:09:22.683Z,34.52
2023-05-06T08:10:16.396Z,34.52
2023-05-06T08:11:16.992Z,34.49
2023-05-06T08:12:15.625Z,34.52
2023-05-06T08:13:15.658Z,34.52
2023-05-06T08:14:15.639Z,34.55
2023-05-06T08:15:15.641Z,34.50
2023-05-06T08:16:15.742Z,34.49
2023-05-06T08:17:15.738Z,34.50
2023-05-06T08:18:22.176Z,34.53
2023-05-06T08:19:16.705Z,34.52
2023-05-06T08:20:15.716Z,34.55
2023-05-06T08:21:15.702Z,34.53
2023-05-06T08:22:15.696Z,34.48
2023-05-06T08:23:15.666Z,34.52
2023-05-06T08:24:15.674Z,34.52
2023-05-06T08:25:16.201Z,34.54
2023-05-06T08:26:15.671Z,34.52
2023-05-06T08:27:15.643Z,34.50
2023-05-06T08:28:15.632Z,34.52
2023-05-06T08:29:15.624Z,34.57
2023-05-06T08:30:15.657Z,34.53
2023-05-06T08:31:15.622Z,34.50
2023-05-06T08:32:15.603Z,34.51
2023-05-06T08:33:15.691Z,34.53
2023-05-06T08:34:15.617Z,34.54
2023-05-06T08:35:15.588Z,34.54
2023-05-06T08:36:15.580Z,34.50
2023-05-06T08:37:15.603Z,34.55
2023-05-06T08:38:15.732Z,34.52
2023-05-06T08:39:15.571Z,34.54
2023-05-06T08:40:15.550Z,34.55
2023-05-06T08:41:15.590Z,34.49
2023-05-06T08:42:15.562Z,34.53
2023-05-06T08:43:15.554Z,34.53
2023-05-06T08:44:15.541Z,34.52
2023-05-06T08:45:15.564Z,34.50
2023-05-06T08:46:15.616Z,34.52
2023-05-06T08:47:15.533Z,34.50
2023-05-06T08:48:15.546Z,34.49
2023-05-06T08:49:15.506Z,34.53
2023-05-06T08:50:15.560Z,34.50
2023-05-06T08:51:15.511Z,34.53
2023-05-06T08:52:15.494Z,34.52
2023-05-06T08:53:15.487Z,34.50
2023-05-06T08:54:15.472Z,34.53
2023-05-06T08:55:15.467Z,34.53
2023-05-06T08:56:15.451Z,34.48
2023-05-06T08:57:15.440Z,34.49
2023-05-06T08:58:15.477Z,34.53
2023-05-06T08:59:15.432Z,34.52
2023-05-06T09:00:15.445Z,34.50
2023-05-06T09:01:15.464Z,34.52
2023-05-06T09:02:15.483Z,34.49
2023-05-06T09:03:15.524Z,34.52
2023-05-06T09:04:15.450Z,34.51
2023-05-06T09:05:15.488Z,34.49
2023-05-06T09:06:15.397Z,34.48
2023-05-06T09:07:15.398Z,34.53
2023-05-06T09:08:15.414Z,34.47
2023-05-06T09:09:15.360Z,34.48
2023-05-06T09:10:15.349Z,34.45
2023-05-06T09:11:15.346Z,34.56
2023-05-06T09:12:15.337Z,34.55
2023-05-06T09:13:15.478Z,34.49
2023-05-06T09:14:15.326Z,34.52
2023-05-06T09:15:15.361Z,34.51
2023-05-06T09:16:15.354Z,34.54
2023-05-06T09:17:15.326Z,34.55
2023-05-06T09:18:15.358Z,34.55
2023-05-06T09:19:15.315Z,34.54
2023-05-06T09:20:15.324Z,34.53
2023-05-06T09:21:15.334Z,34.55
2023-05-06T09:22:15.303Z,34.52
2023-05-06T09:23:15.267Z,34.52
2023-05-06T09:24:15.276Z,34.50
2023-05-06T09:25:15.285Z,34.53
2023-05-06T09:26:15.293Z,34.51
2023-05-06T09:27:15.349Z,34.55
2023-05-06T09:28:15.268Z,34.55
2023-05-06T09:29:15.259Z,34.59
2023-05-06T09:30:15.256Z,34.57
2023-05-06T09:31:15.272Z,34.59
2023-05-06T09:32:15.207Z,34.57
2023-05-06T09:33:15.307Z,34.56
2023-05-06T09:34:15.219Z,34.61
2023-05-06T09:35:15.230Z,34.59
2023-05-06T09:36:15.221Z,34.63
2023-05-06T09:37:15.190Z,34.64
2023-05-06T09:38:15.217Z,34.56
2023-05-06T09:39:15.188Z,34.61
2023-05-06T09:40:15.199Z,34.58
2023-05-06T09:41:15.155Z,34.65
2023-05-06T09:42:15.170Z,34.64
2023-05-06T09:43:15.147Z,34.65
2023-05-06T09:44:15.237Z,34.63
2023-05-06T09:45:15.228Z,34.66
2023-05-06T09:46:15.181Z,34.65
2023-05-06T09:47:15.138Z,34.59
2023-05-06T09:48:15.163Z,34.65
2023-05-06T09:49:15.170Z,34.63
2023-05-06T09:50:15.120Z,34.65
2023-05-06T09:51:15.152Z,34.66
2023-05-06T09:52:15.096Z,34.67
2023-05-06T09:53:15.167Z,34.64
2023-05-06T09:54:15.129Z,34.63
2023-05-06T09:55:15.142Z,34.65
2023-05-06T09:56:15.112Z,34.66
2023-05-06T09:57:15.124Z,34.69
2023-05-06T09:58:15.155Z,34.64
2023-05-06T09:59:15.118Z,34.68
2023-05-06T10:00:15.139Z,34.65
2023-05-06T10:01:22.187Z,34.60
2023-05-06T10:02:16.169Z,34.68
2023-05-06T10:03:15.224Z,34.64
2023-05-06T10:04:15.288Z,34.63
2023-05-06T10:05:15.410Z,34.63
2023-05-06T10:06:15.100Z,34.64
2023-05-06T10:07:15.107Z,34.64
2023-05-06T10:08:15.089Z,34.63
2023-05-06T10:09:15.086Z,34.63
2023-05-06T10:10:15.053Z,34.63
2023-05-06T10:11:15.042Z,34.60
2023-05-06T10:12:15.058Z,34.63
2023-05-06T10:13:15.096Z,34.62
2023-05-06T10:14:15.053Z,34.64
2023-05-06T10:15:15.030Z,34.62
2023-05-06T10:16:15.794Z,34.58
2023-05-06T10:17:15.019Z,34.62
2023-05-06T10:18:14.992Z,34.59
2023-05-06T10:19:15.018Z,34.62
2023-05-06T10:20:15.020Z,34.58
2023-05-06T10:21:14.998Z,34.58
2023-05-06T10:22:14.975Z,34.63
2023-05-06T10:23:15.002Z,34.59
2023-05-06T10:24:14.973Z,34.57
2023-05-06T10:25:15.032Z,34.62
2023-05-06T10:26:14.991Z,34.61
2023-05-06T10:27:14.953Z,34.58
2023-05-06T10:28:23.153Z,34.59
2023-05-06T10:29:15.956Z,34.55
2023-05-06T10:30:14.937Z,34.62
2023-05-06T10:31:14.989Z,34.58
2023-05-06T10:32:14.944Z,34.61
2023-05-06T10:33:14.940Z,34.58
2023-05-06T10:34:14.933Z,34.58
2023-05-06T10:35:14.925Z,34.55
2023-05-06T10:36:14.905Z,34.54
2023-05-06T10:37:14.893Z,34.57
2023-05-06T10:38:14.892Z,34.55
2023-05-06T10:39:15.233Z,34.56
2023-05-06T10:40:14.852Z,34.55
2023-05-06T10:41:15.028Z,34.58
2023-05-06T10:42:14.878Z,34.55
2023-05-06T10:43:14.830Z,34.54
2023-05-06T10:44:15.223Z,34.57
2023-05-06T10:45:14.829Z,34.55
2023-05-06T10:46:14.923Z,34.58
2023-05-06T10:47:14.808Z,34.53
2023-05-06T10:48:14.810Z,34.57
2023-05-06T10:49:14.797Z,34.54
2023-05-06T10:50:14.776Z,34.52
2023-05-06T10:51:14.808Z,34.54
2023-05-06T10:52:14.863Z,34.55
2023-05-06T10:53:14.768Z,34.55
2023-05-06T10:54:14.787Z,34.52
2023-05-06T10:55:14.761Z,34.52
2023-05-06T10:56:14.767Z,34.55
2023-05-06T10:57:14.815Z,34.50
2023-05-06T10:58:14.840Z,34.53
2023-05-06T10:59:14.734Z,34.55
2023-05-06T11:00:14.730Z,34.52
2023-05-06T11:01:14.822Z,34.53
2023-05-06T11:02:14.781Z,34.54
2023-05-06T11:03:14.798Z,34.57
2023-05-06T11:04:14.768Z,34.53
2023-05-06T11:05:14.691Z,34.55
2023-05-06T11:06:14.692Z,34.50
2023-05-06T11:07:14.708Z,34.50
2023-05-06T11:08:14.671Z,34.56
2023-05-06T11:09:14.660Z,34.53
2023-05-06T11:10:14.749Z,34.48
2023-05-06T11:11:14.684Z,34.52
2023-05-06T11:12:14.666Z,34.49
2023-05-06T11:13:14.823Z,34.48
2023-05-06T11:14:14.668Z,34.53
2023-05-06T11:15:14.657Z,34.51
2023-05-06T11:16:14.654Z,34.50
2023-05-06T11:17:14.649Z,34.49
2023-05-06T11:18:14.631Z,34.52
2023-05-06T11:19:14.601Z,34.45
2023-05-06T11:20:14.698Z,34.48
2023-05-06T11:21:14.602Z,34.52
2023-05-06T11:22:14.608Z,34.47
2023-05-06T11:23:14.573Z,34.48
2023-05-06T11:24:14.797Z,34.50
2023-05-06T11:25:14.604Z,34.44
2023-05-06T11:26:14.561Z,34.48
2023-05-06T11:27:14.586Z,34.45
2023-05-06T11:28:14.589Z,34.47
2023-05-06T11:29:14.779Z,34.45
2023-05-06T11:30:14.636Z,34.43
2023-05-06T11:31:14.593Z,34.48
2023-05-06T11:32:14.574Z,34.47
2023-05-06T11:33:14.609Z,34.48
2023-05-06T11:34:14.650Z,34.47
2023-05-06T11:35:14.621Z,34.48
2023-05-06T11:36:14.629Z,34.51
2023-05-06T11:37:14.642Z,34.47
2023-05-06T11:38:14.629Z,34.46
2023-05-06T11:39:14.766Z,34.45
2023-05-06T11:40:14.676Z,34.44
2023-05-06T11:41:14.657Z,34.47
2023-05-06T11:42:14.648Z,34.47
2023-05-06T11:43:14.665Z,34.45
2023-05-06T11:44:14.689Z,34.42
2023-05-06T11:45:14.715Z,34.47
2023-05-06T11:46:14.688Z,34.46
2023-05-06T11:47:14.694Z,34.44
2023-05-06T11:48:14.664Z,34.46
2023-05-06T11:49:14.690Z,34.45
2023-05-06T11:50:14.668Z,34.41
2023-05-06T11:51:14.682Z,34.41
2023-05-06T11:52:14.671Z,34.42
2023-05-06T11:53:14.638Z,34.41
2023-05-06T11:54:14.671Z,34.42
2023-05-06T11:55:14.646Z,34.47
2023-05-06T11:56:14.650Z,34.42
2023-05-06T11:57:14.649Z,34.42
2023-05-06T11:58:14.643Z,34.41
2023-05-06T11:59:14.643Z,34.39
2023-05-06T12:00:14.718Z,34.37
2023-05-06T12:01:15.372Z,34.38
2023-05-06T12:02:14.693Z,34.41
2023-05-06T12:03:14.696Z,34.41
2023-05-06T12:04:14.738Z,34.42
2023-05-06T12:05:14.622Z,34.37
2023-05-06T12:06:14.596Z,34.38
2023-05-06T12:07:14.634Z,34.43
2023-05-06T12:08:26.851Z,34.41
2023-05-06T12:09:15.583Z,34.36
2023-05-06T12:10:14.647Z,34.37
2023-05-06T12:11:14.574Z,34.39
2023-05-06T12:12:14.582Z,34.41
2023-05-06T12:13:14.587Z,34.39
2023-05-06T12:14:14.602Z,34.33
2023-05-06T12:15:14.602Z,34.36
2023-05-06T12:16:14.593Z,34.34
2023-05-06T12:17:14.603Z,34.31
2023-05-06T12:18:14.534Z,34.36
2023-05-06T12:19:14.574Z,34.36
2023-05-06T12:20:14.543Z,34.32
2023-05-06T12:21:14.514Z,34.31
2023-05-06T12:22:14.527Z,34.31
2023-05-06T12:23:14.504Z,34.30
2023-05-06T12:24:14.575Z,34.25
2023-05-06T12:25:14.478Z,34.30
2023-05-06T12:26:14.515Z,34.26
2023-05-06T12:27:14.506Z,34.22
2023-05-06T12:28:14.462Z,34.23
2023-05-06T12:29:14.493Z,34.30
2023-05-06T12:30:14.520Z,34.27
2023-05-06T12:31:14.495Z,34.28
2023-05-06T12:32:14.457Z,34.22
2023-05-06T12:33:14.506Z,34.25
2023-05-06T12:34:14.435Z,34.24
2023-05-06T12:35:14.426Z,34.20
2023-05-06T12:36:14.453Z,34.24
2023-05-06T12:37:14.502Z,34.23
2023-05-06T12:38:14.548Z,34.23
2023-05-06T12:39:14.661Z,34.20
2023-05-06T12:40:14.633Z,34.14
2023-05-06T12:41:14.664Z,34.18
2023-05-06T12:42:14.685Z,34.18
2023-05-06T12:43:14.745Z,34.13
2023-05-06T12:44:14.799Z,34.22
2023-05-06T12:45:14.786Z,34.15
2023-05-06T12:46:14.944Z,34.15
2023-05-06T12:47:14.898Z,34.12
2023-05-06T12:48:14.975Z,34.18
2023-05-06T12:49:15.362Z,34.13
2023-05-06T12:50:15.052Z,34.09
2023-05-06T12:51:15.075Z,34.09
2023-05-06T12:52:15.063Z,34.07